sensor_id;sensor_type;location;lat;lon;timestamp;temperature;humidity
4604;DHT22;2314;48.272;11.562;2022-10-19T00:01:13;12.10;99.90
4604;DHT22;2314;48.272;11.562;2022-10-19T00:03:44;12.20;99.90
4604;DHT22;2314;48.272;11.562;2022-10-19T00:06:15;12.20;99.90
4604;DHT22;2314;48.272;11.562;2022-10-19T00:08:45;12.20;99.90
4604;DHT22;2314;48.272;11.562;2022-10-19T00:11:12;12.30;99.90
4604;DHT22;2314;48.272;11.562;2022-10-19T00:13:39;12.20;99.90
4604;DHT22;2314;48.272;11.562;2022-10-19T00:16:09;12.20;99.90
4604;DHT22;2314;48.272;11.562;2022-10-19T00:18:38;12.30;99.90
4604;DHT22;2314;48.272;11.562;2022-10-19T00:21:12;12.20;99.90
4604;DHT22;2314;48.272;11.562;2022-10-19T00:23:44;12.20;99.90
4604;DHT22;2314;48.272;11.562;2022-10-19T00:26:12;12.20;99.90
4604;DHT22;2314;48.272;11.562;2022-10-19T00:28:39;12.10;99.90
4604;DHT22;2314;48.272;11.562;2022-10-19T00:31:09;12.10;99.90
4604;DHT22;2314;48.272;11.562;2022-10-19T00:33:37;12.00;99.90
4604;DHT22;2314;48.272;11.562;2022-10-19T00:36:05;12.00;99.90
4604;DHT22;2314;48.272;11.562;2022-10-19T00:38:40;12.00;99.90
4604;DHT22;2314;48.272;11.562;2022-10-19T00:41:08;11.90;99.90
4604;DHT22;2314;48.272;11.562;2022-10-19T00:43:50;11.80;99.90
4604;DHT22;2314;48.272;11.562;2022-10-19T00:46:19;11.80;99.90
4604;DHT22;2314;48.272;11.562;2022-10-19T00:48:46;11.80;99.90
4604;DHT22;2314;48.272;11.562;2022-10-19T00:51:13;11.70;99.90
4604;DHT22;2314;48.272;11.562;2022-10-19T00:53:42;11.70;99.90
4604;DHT22;2314;48.272;11.562;2022-10-19T00:56:11;11.70;99.90
4604;DHT22;2314;48.272;11.562;2022-10-19T00:58:41;11.70;99.90
4604;DHT22;2314;48.272;11.562;2022-10-19T01:01:12;11.70;99.90
4604;DHT22;2314;48.272;11.562;2022-10-19T01:03:41;11.70;99.90
4604;DHT22;2314;48.272;11.562;2022-10-19T01:06:09;11.70;99.90
4604;DHT22;2314;48.272;11.562;2022-10-19T01:08:41;11.80;99.90
4604;DHT22;2314;48.272;11.562;2022-10-19T01:11:22;11.80;99.90
4604;DHT22;2314;48.272;11.562;2022-10-19T01:14:02;11.80;99.90
4604;DHT22;2314;48.272;11.562;2022-10-19T01:16:46;11.90;99.90
4604;DHT22;2314;48.272;11.562;2022-10-19T01:22:48;11.90;99.90
4604;DHT22;2314;48.272;11.562;2022-10-19T01:25:34;11.90;99.90
4604;DHT22;2314;48.272;11.562;2022-10-19T01:28:24;12.00;99.90
4604;DHT22;2314;48.272;11.562;2022-10-19T01:31:03;12.00;99.90
4604;DHT22;2314;48.272;11.562;2022-10-19T01:33:39;12.00;99.90
4604;DHT22;2314;48.272;11.562;2022-10-19T01:36:18;12.00;99.90
4604;DHT22;2314;48.272;11.562;2022-10-19T01:38:52;12.00;99.90
4604;DHT22;2314;48.272;11.562;2022-10-19T01:41:28;12.00;99.90
4604;DHT22;2314;48.272;11.562;2022-10-19T01:44:06;12.10;99.90
4604;DHT22;2314;48.272;11.562;2022-10-19T01:46:40;12.10;99.90
4604;DHT22;2314;48.272;11.562;2022-10-19T01:49:14;12.10;99.90
4604;DHT22;2314;48.272;11.562;2022-10-19T01:51:48;12.20;99.90
4604;DHT22;2314;48.272;11.562;2022-10-19T01:54:17;12.20;99.90
4604;DHT22;2314;48.272;11.562;2022-10-19T01:56:47;12.20;99.90
4604;DHT22;2314;48.272;11.562;2022-10-19T01:59:17;12.20;99.90
4604;DHT22;2314;48.272;11.562;2022-10-19T02:01:48;12.30;99.90
4604;DHT22;2314;48.272;11.562;2022-10-19T02:04:18;12.30;99.90
4604;DHT22;2314;48.272;11.562;2022-10-19T02:06:47;12.30;99.90
4604;DHT22;2314;48.272;11.562;2022-10-19T02:09:15;12.40;99.90
4604;DHT22;2314;48.272;11.562;2022-10-19T02:11:46;12.40;99.90
4604;DHT22;2314;48.272;11.562;2022-10-19T02:14:19;12.40;99.90
4604;DHT22;2314;48.272;11.562;2022-10-19T02:16:53;12.50;99.90
4604;DHT22;2314;48.272;11.562;2022-10-19T02:19:23;12.50;99.90
4604;DHT22;2314;48.272;11.562;2022-10-19T02:21:50;12.50;99.90
4604;DHT22;2314;48.272;11.562;2022-10-19T02:24:18;12.50;99.90
4604;DHT22;2314;48.272;11.562;2022-10-19T02:26:45;12.60;99.90
4604;DHT22;2314;48.272;11.562;2022-10-19T02:29:13;12.60;99.90
4604;DHT22;2314;48.272;11.562;2022-10-19T02:31:41;12.60;99.90
4604;DHT22;2314;48.272;11.562;2022-10-19T02:34:11;12.60;99.90
4604;DHT22;2314;48.272;11.562;2022-10-19T02:36:39;12.60;99.90
4604;DHT22;2314;48.272;11.562;2022-10-19T02:39:06;12.70;99.90
4604;DHT22;2314;48.272;11.562;2022-10-19T02:41:36;12.70;99.90
4604;DHT22;2314;48.272;11.562;2022-10-19T02:44:09;12.70;99.90
4604;DHT22;2314;48.272;11.562;2022-10-19T02:46:43;12.70;99.90
4604;DHT22;2314;48.272;11.562;2022-10-19T02:49:12;12.70;99.90
4604;DHT22;2314;48.272;11.562;2022-10-19T02:51:55;12.70;99.90
4604;DHT22;2314;48.272;11.562;2022-10-19T02:54:23;12.80;99.90
4604;DHT22;2314;48.272;11.562;2022-10-19T02:56:51;12.80;99.90
4604;DHT22;2314;48.272;11.562;2022-10-19T02:59:18;12.80;99.90
4604;DHT22;2314;48.272;11.562;2022-10-19T03:01:45;12.90;99.90
4604;DHT22;2314;48.272;11.562;2022-10-19T03:04:14;12.90;99.90
4604;DHT22;2314;48.272;11.562;2022-10-19T03:06:41;12.90;99.90
4604;DHT22;2314;48.272;11.562;2022-10-19T03:09:08;12.90;99.90
4604;DHT22;2314;48.272;11.562;2022-10-19T03:11:36;12.90;99.90
4604;DHT22;2314;48.272;11.562;2022-10-19T03:14:03;12.90;99.90
4604;DHT22;2314;48.272;11.562;2022-10-19T03:16:30;12.90;99.90
4604;DHT22;2314;48.272;11.562;2022-10-19T03:18:57;12.90;99.90
4604;DHT22;2314;48.272;11.562;2022-10-19T03:21:25;12.90;99.90
4604;DHT22;2314;48.272;11.562;2022-10-19T03:23:52;12.90;99.90
4604;DHT22;2314;48.272;11.562;2022-10-19T03:26:19;13.00;99.90
4604;DHT22;2314;48.272;11.562;2022-10-19T03:28:46;13.00;99.90
4604;DHT22;2314;48.272;11.562;2022-10-19T03:31:13;13.00;99.90
4604;DHT22;2314;48.272;11.562;2022-10-19T03:33:40;13.00;99.90
4604;DHT22;2314;48.272;11.562;2022-10-19T03:36:20;13.00;99.90
4604;DHT22;2314;48.272;11.562;2022-10-19T03:38:51;13.10;99.90
4604;DHT22;2314;48.272;11.562;2022-10-19T03:41:19;13.10;99.90
4604;DHT22;2314;48.272;11.562;2022-10-19T03:43:47;13.10;99.90
4604;DHT22;2314;48.272;11.562;2022-10-19T03:46:14;13.10;99.90
4604;DHT22;2314;48.272;11.562;2022-10-19T03:48:42;13.10;99.90
4604;DHT22;2314;48.272;11.562;2022-10-19T03:51:11;13.10;99.90
4604;DHT22;2314;48.272;11.562;2022-10-19T03:53:40;13.10;99.90
4604;DHT22;2314;48.272;11.562;2022-10-19T03:56:11;13.10;99.90
4604;DHT22;2314;48.272;11.562;2022-10-19T03:58:40;13.10;99.90
4604;DHT22;2314;48.272;11.562;2022-10-19T04:01:10;13.10;99.90
4604;DHT22;2314;48.272;11.562;2022-10-19T04:03:38;13.10;99.90
4604;DHT22;2314;48.272;11.562;2022-10-19T04:06:07;13.10;99.90
4604;DHT22;2314;48.272;11.562;2022-10-19T04:08:35;13.20;99.90
4604;DHT22;2314;48.272;11.562;2022-10-19T04:11:04;13.20;99.90
4604;DHT22;2314;48.272;11.562;2022-10-19T04:13:34;13.20;99.90
4604;DHT22;2314;48.272;11.562;2022-10-19T04:16:01;13.20;99.90
4604;DHT22;2314;48.272;11.562;2022-10-19T04:18:28;13.20;99.90
4604;DHT22;2314;48.272;11.562;2022-10-19T04:20:56;13.20;99.90
4604;DHT22;2314;48.272;11.562;2022-10-19T04:23:25;13.20;99.90
4604;DHT22;2314;48.272;11.562;2022-10-19T04:25:58;13.20;99.90
4604;DHT22;2314;48.272;11.562;2022-10-19T04:28:25;13.20;99.90
4604;DHT22;2314;48.272;11.562;2022-10-19T04:30:54;13.30;99.90
4604;DHT22;2314;48.272;11.562;2022-10-19T04:33:21;13.20;99.90
4604;DHT22;2314;48.272;11.562;2022-10-19T04:35:48;13.30;99.90
4604;DHT22;2314;48.272;11.562;2022-10-19T04:38:15;13.20;99.90
4604;DHT22;2314;48.272;11.562;2022-10-19T04:40:42;13.20;99.90
4604;DHT22;2314;48.272;11.562;2022-10-19T04:43:09;13.20;99.90
4604;DHT22;2314;48.272;11.562;2022-10-19T04:45:36;13.20;99.90
4604;DHT22;2314;48.272;11.562;2022-10-19T04:48:05;13.30;99.90
4604;DHT22;2314;48.272;11.562;2022-10-19T04:50:32;13.20;99.90
4604;DHT22;2314;48.272;11.562;2022-10-19T04:52:59;13.20;99.90
4604;DHT22;2314;48.272;11.562;2022-10-19T04:55:26;13.20;99.90
4604;DHT22;2314;48.272;11.562;2022-10-19T04:57:53;13.20;99.90
4604;DHT22;2314;48.272;11.562;2022-10-19T05:00:20;13.20;99.90
4604;DHT22;2314;48.272;11.562;2022-10-19T05:02:47;13.20;99.90
4604;DHT22;2314;48.272;11.562;2022-10-19T05:05:15;13.20;99.90
4604;DHT22;2314;48.272;11.562;2022-10-19T05:07:42;13.20;99.90
4604;DHT22;2314;48.272;11.562;2022-10-19T05:10:10;13.20;99.90
4604;DHT22;2314;48.272;11.562;2022-10-19T05:12:37;13.20;99.90
4604;DHT22;2314;48.272;11.562;2022-10-19T05:15:05;13.20;99.90
4604;DHT22;2314;48.272;11.562;2022-10-19T05:17:33;13.20;99.90
4604;DHT22;2314;48.272;11.562;2022-10-19T05:20:00;13.20;99.90
4604;DHT22;2314;48.272;11.562;2022-10-19T05:22:28;13.20;99.90
4604;DHT22;2314;48.272;11.562;2022-10-19T05:24:55;13.20;99.90
4604;DHT22;2314;48.272;11.562;2022-10-19T05:27:22;13.20;99.90
4604;DHT22;2314;48.272;11.562;2022-10-19T05:29:49;13.20;99.90
4604;DHT22;2314;48.272;11.562;2022-10-19T05:32:16;13.30;99.90
4604;DHT22;2314;48.272;11.562;2022-10-19T05:34:43;13.20;99.90
4604;DHT22;2314;48.272;11.562;2022-10-19T05:37:10;13.20;99.90
4604;DHT22;2314;48.272;11.562;2022-10-19T05:39:38;13.30;99.90
4604;DHT22;2314;48.272;11.562;2022-10-19T05:42:05;13.30;99.90
4604;DHT22;2314;48.272;11.562;2022-10-19T05:44:33;13.30;99.90
4604;DHT22;2314;48.272;11.562;2022-10-19T05:47:00;13.30;99.90
4604;DHT22;2314;48.272;11.562;2022-10-19T05:49:28;13.30;99.90
4604;DHT22;2314;48.272;11.562;2022-10-19T05:51:55;13.30;99.90
4604;DHT22;2314;48.272;11.562;2022-10-19T05:54:22;13.40;99.90
4604;DHT22;2314;48.272;11.562;2022-10-19T05:56:50;13.40;99.90
4604;DHT22;2314;48.272;11.562;2022-10-19T05:59:19;13.40;99.90
4604;DHT22;2314;48.272;11.562;2022-10-19T06:01:47;13.40;99.90
4604;DHT22;2314;48.272;11.562;2022-10-19T06:04:14;13.40;99.90
4604;DHT22;2314;48.272;11.562;2022-10-19T06:06:41;13.40;99.90
4604;DHT22;2314;48.272;11.562;2022-10-19T06:09:09;13.50;99.90
4604;DHT22;2314;48.272;11.562;2022-10-19T06:11:37;13.50;99.90
4604;DHT22;2314;48.272;11.562;2022-10-19T06:14:10;13.50;99.90
4604;DHT22;2314;48.272;11.562;2022-10-19T06:16:39;13.60;99.90
4604;DHT22;2314;48.272;11.562;2022-10-19T06:19:06;13.60;99.90
4604;DHT22;2314;48.272;11.562;2022-10-19T06:21:34;13.70;99.90
4604;DHT22;2314;48.272;11.562;2022-10-19T06:24:02;13.70;99.90
4604;DHT22;2314;48.272;11.562;2022-10-19T06:26:32;13.70;99.90
4604;DHT22;2314;48.272;11.562;2022-10-19T06:29:01;13.80;99.90
4604;DHT22;2314;48.272;11.562;2022-10-19T06:31:31;13.80;99.90
4604;DHT22;2314;48.272;11.562;2022-10-19T06:33:58;13.80;99.90
4604;DHT22;2314;48.272;11.562;2022-10-19T06:36:27;13.90;99.90
4604;DHT22;2314;48.272;11.562;2022-10-19T06:38:55;13.80;99.90
4604;DHT22;2314;48.272;11.562;2022-10-19T06:41:24;13.90;99.90
4604;DHT22;2314;48.272;11.562;2022-10-19T06:43:52;13.90;99.90
4604;DHT22;2314;48.272;11.562;2022-10-19T06:46:23;13.90;99.90
4604;DHT22;2314;48.272;11.562;2022-10-19T06:48:55;13.90;99.90
4604;DHT22;2314;48.272;11.562;2022-10-19T06:51:24;14.00;99.90
4604;DHT22;2314;48.272;11.562;2022-10-19T06:53:51;14.00;99.90
4604;DHT22;2314;48.272;11.562;2022-10-19T06:56:19;14.00;99.90
4604;DHT22;2314;48.272;11.562;2022-10-19T06:58:46;14.00;99.90
4604;DHT22;2314;48.272;11.562;2022-10-19T07:01:14;14.00;99.90
4604;DHT22;2314;48.272;11.562;2022-10-19T07:03:41;14.00;99.90
4604;DHT22;2314;48.272;11.562;2022-10-19T07:06:11;14.00;99.90
4604;DHT22;2314;48.272;11.562;2022-10-19T07:08:39;14.00;99.90
4604;DHT22;2314;48.272;11.562;2022-10-19T07:11:10;14.10;99.90
4604;DHT22;2314;48.272;11.562;2022-10-19T07:13:38;14.10;99.90
4604;DHT22;2314;48.272;11.562;2022-10-19T07:16:07;14.10;99.90
4604;DHT22;2314;48.272;11.562;2022-10-19T07:18:37;14.20;99.90
4604;DHT22;2314;48.272;11.562;2022-10-19T07:21:06;14.10;99.90
4604;DHT22;2314;48.272;11.562;2022-10-19T07:23:36;14.20;99.90
4604;DHT22;2314;48.272;11.562;2022-10-19T07:26:05;14.20;99.90
4604;DHT22;2314;48.272;11.562;2022-10-19T07:28:37;14.30;99.90
4604;DHT22;2314;48.272;11.562;2022-10-19T07:31:06;14.30;99.90
4604;DHT22;2314;48.272;11.562;2022-10-19T07:33:34;14.40;99.90
4604;DHT22;2314;48.272;11.562;2022-10-19T07:36:03;14.50;99.90
4604;DHT22;2314;48.272;11.562;2022-10-19T07:38:32;14.50;99.90
4604;DHT22;2314;48.272;11.562;2022-10-19T07:41:03;14.60;99.90
4604;DHT22;2314;48.272;11.562;2022-10-19T07:43:31;14.60;99.90
4604;DHT22;2314;48.272;11.562;2022-10-19T07:46:00;14.60;99.90
4604;DHT22;2314;48.272;11.562;2022-10-19T07:48:28;14.80;99.90
4604;DHT22;2314;48.272;11.562;2022-10-19T07:50:55;14.70;99.90
4604;DHT22;2314;48.272;11.562;2022-10-19T07:53:22;14.80;99.90
4604;DHT22;2314;48.272;11.562;2022-10-19T07:55:51;14.80;99.90
4604;DHT22;2314;48.272;11.562;2022-10-19T07:58:18;14.80;99.90
4604;DHT22;2314;48.272;11.562;2022-10-19T08:00:45;14.80;99.90
4604;DHT22;2314;48.272;11.562;2022-10-19T08:03:12;14.80;99.90
4604;DHT22;2314;48.272;11.562;2022-10-19T08:05:39;14.90;99.90
4604;DHT22;2314;48.272;11.562;2022-10-19T08:08:06;14.90;99.90
4604;DHT22;2314;48.272;11.562;2022-10-19T08:10:33;14.90;99.90
4604;DHT22;2314;48.272;11.562;2022-10-19T08:13:02;14.90;99.90
4604;DHT22;2314;48.272;11.562;2022-10-19T08:15:29;14.90;99.90
4604;DHT22;2314;48.272;11.562;2022-10-19T08:17:57;15.00;99.90
4604;DHT22;2314;48.272;11.562;2022-10-19T08:20:25;15.10;99.90
4604;DHT22;2314;48.272;11.562;2022-10-19T08:22:52;15.20;99.90
4604;DHT22;2314;48.272;11.562;2022-10-19T08:25:19;15.20;99.90
4604;DHT22;2314;48.272;11.562;2022-10-19T08:27:46;15.30;99.90
4604;DHT22;2314;48.272;11.562;2022-10-19T08:30:15;15.30;99.90
4604;DHT22;2314;48.272;11.562;2022-10-19T08:32:42;15.30;99.90
4604;DHT22;2314;48.272;11.562;2022-10-19T08:35:09;15.40;99.90
4604;DHT22;2314;48.272;11.562;2022-10-19T08:37:36;15.40;99.90
4604;DHT22;2314;48.272;11.562;2022-10-19T08:40:04;15.40;99.90
4604;DHT22;2314;48.272;11.562;2022-10-19T08:42:51;15.40;99.90
4604;DHT22;2314;48.272;11.562;2022-10-19T08:45:36;15.60;99.90
4604;DHT22;2314;48.272;11.562;2022-10-19T08:48:21;15.70;99.90
4604;DHT22;2314;48.272;11.562;2022-10-19T08:50:51;15.70;99.90
4604;DHT22;2314;48.272;11.562;2022-10-19T08:53:25;15.80;99.90
4604;DHT22;2314;48.272;11.562;2022-10-19T08:56:07;15.80;99.90
4604;DHT22;2314;48.272;11.562;2022-10-19T08:58:54;15.90;99.90
4604;DHT22;2314;48.272;11.562;2022-10-19T09:01:35;15.90;99.90
4604;DHT22;2314;48.272;11.562;2022-10-19T09:04:09;16.10;99.90
4604;DHT22;2314;48.272;11.562;2022-10-19T09:06:47;16.20;99.90
4604;DHT22;2314;48.272;11.562;2022-10-19T09:09:19;16.20;99.90
4604;DHT22;2314;48.272;11.562;2022-10-19T09:11:49;16.30;99.90
4604;DHT22;2314;48.272;11.562;2022-10-19T09:14:20;16.30;99.90
4604;DHT22;2314;48.272;11.562;2022-10-19T09:16:50;16.30;99.90
4604;DHT22;2314;48.272;11.562;2022-10-19T09:19:21;16.40;99.90
4604;DHT22;2314;48.272;11.562;2022-10-19T09:21:56;16.50;99.90
4604;DHT22;2314;48.272;11.562;2022-10-19T09:24:28;16.60;99.90
4604;DHT22;2314;48.272;11.562;2022-10-19T09:27:00;16.50;99.90
4604;DHT22;2314;48.272;11.562;2022-10-19T09:29:35;16.50;99.90
4604;DHT22;2314;48.272;11.562;2022-10-19T09:32:11;16.50;99.90
4604;DHT22;2314;48.272;11.562;2022-10-19T09:34:42;16.60;99.90
4604;DHT22;2314;48.272;11.562;2022-10-19T09:37:11;16.60;99.90
4604;DHT22;2314;48.272;11.562;2022-10-19T09:39:38;16.60;99.90
4604;DHT22;2314;48.272;11.562;2022-10-19T09:42:12;16.60;99.90
4604;DHT22;2314;48.272;11.562;2022-10-19T09:44:44;16.80;99.90
4604;DHT22;2314;48.272;11.562;2022-10-19T09:47:24;16.80;99.90
4604;DHT22;2314;48.272;11.562;2022-10-19T09:50:07;16.90;99.90
4604;DHT22;2314;48.272;11.562;2022-10-19T09:52:41;17.00;99.90
4604;DHT22;2314;48.272;11.562;2022-10-19T09:55:20;17.20;99.90
4604;DHT22;2314;48.272;11.562;2022-10-19T09:57:59;17.30;99.90
4604;DHT22;2314;48.272;11.562;2022-10-19T10:00:33;17.10;99.90
4604;DHT22;2314;48.272;11.562;2022-10-19T10:03:03;17.10;99.90
4604;DHT22;2314;48.272;11.562;2022-10-19T10:05:34;17.10;99.90
4604;DHT22;2314;48.272;11.562;2022-10-19T10:08:16;17.00;99.90
4604;DHT22;2314;48.272;11.562;2022-10-19T10:10:47;17.00;99.90
4604;DHT22;2314;48.272;11.562;2022-10-19T10:13:22;17.00;99.90
4604;DHT22;2314;48.272;11.562;2022-10-19T10:15:55;17.10;99.90
4604;DHT22;2314;48.272;11.562;2022-10-19T10:18:24;17.20;99.90
4604;DHT22;2314;48.272;11.562;2022-10-19T10:20:59;17.20;99.90
4604;DHT22;2314;48.272;11.562;2022-10-19T10:23:31;17.30;99.90
4604;DHT22;2314;48.272;11.562;2022-10-19T10:26:01;17.30;99.90
4604;DHT22;2314;48.272;11.562;2022-10-19T10:28:30;17.30;99.90
4604;DHT22;2314;48.272;11.562;2022-10-19T10:31:03;17.30;99.90
4604;DHT22;2314;48.272;11.562;2022-10-19T10:33:35;17.20;99.90
4604;DHT22;2314;48.272;11.562;2022-10-19T10:36:06;17.30;99.90
4604;DHT22;2314;48.272;11.562;2022-10-19T10:38:35;17.30;99.90
4604;DHT22;2314;48.272;11.562;2022-10-19T10:41:10;17.20;99.90
4604;DHT22;2314;48.272;11.562;2022-10-19T10:43:50;17.10;99.90
4604;DHT22;2314;48.272;11.562;2022-10-19T10:46:21;17.00;99.90
4604;DHT22;2314;48.272;11.562;2022-10-19T10:48:55;17.00;99.90
4604;DHT22;2314;48.272;11.562;2022-10-19T10:51:29;17.10;99.90
4604;DHT22;2314;48.272;11.562;2022-10-19T10:54:19;17.30;99.90
4604;DHT22;2314;48.272;11.562;2022-10-19T10:57:09;17.30;99.90
4604;DHT22;2314;48.272;11.562;2022-10-19T10:59:48;17.20;99.90
4604;DHT22;2314;48.272;11.562;2022-10-19T11:02:37;16.90;99.90
4604;DHT22;2314;48.272;11.562;2022-10-19T11:05:11;16.70;99.90
4604;DHT22;2314;48.272;11.562;2022-10-19T11:07:44;16.70;99.90
4604;DHT22;2314;48.272;11.562;2022-10-19T11:10:19;16.80;99.90
4604;DHT22;2314;48.272;11.562;2022-10-19T11:12:52;16.90;99.90
4604;DHT22;2314;48.272;11.562;2022-10-19T11:15:29;17.00;99.90
4604;DHT22;2314;48.272;11.562;2022-10-19T11:18:14;17.00;99.90
4604;DHT22;2314;48.272;11.562;2022-10-19T11:20:51;16.90;99.90
4604;DHT22;2314;48.272;11.562;2022-10-19T11:23:35;17.10;99.90
4604;DHT22;2314;48.272;11.562;2022-10-19T11:26:23;17.00;99.90
4604;DHT22;2314;48.272;11.562;2022-10-19T11:29:11;17.10;99.90
4604;DHT22;2314;48.272;11.562;2022-10-19T11:31:52;17.10;99.90
4604;DHT22;2314;48.272;11.562;2022-10-19T11:34:36;17.20;99.90
4604;DHT22;2314;48.272;11.562;2022-10-19T11:37:18;17.50;99.90
4604;DHT22;2314;48.272;11.562;2022-10-19T11:39:59;17.60;99.90
4604;DHT22;2314;48.272;11.562;2022-10-19T11:42:42;17.50;99.90
4604;DHT22;2314;48.272;11.562;2022-10-19T11:45:26;17.50;99.90
4604;DHT22;2314;48.272;11.562;2022-10-19T11:48:17;17.50;99.90
4604;DHT22;2314;48.272;11.562;2022-10-19T11:50:56;17.50;99.90
4604;DHT22;2314;48.272;11.562;2022-10-19T11:53:35;17.40;99.90
4604;DHT22;2314;48.272;11.562;2022-10-19T11:56:11;17.40;99.90
4604;DHT22;2314;48.272;11.562;2022-10-19T11:58:52;17.60;99.90
4604;DHT22;2314;48.272;11.562;2022-10-19T12:01:31;17.70;99.90
4604;DHT22;2314;48.272;11.562;2022-10-19T12:10:15;17.80;99.90
4604;DHT22;2314;48.272;11.562;2022-10-19T12:12:48;17.60;99.90
4604;DHT22;2314;48.272;11.562;2022-10-19T12:15:25;17.50;99.90
4604;DHT22;2314;48.272;11.562;2022-10-19T12:18:00;17.60;99.90
4604;DHT22;2314;48.272;11.562;2022-10-19T12:20:34;17.60;99.90
4604;DHT22;2314;48.272;11.562;2022-10-19T12:23:13;17.60;99.90
4604;DHT22;2314;48.272;11.562;2022-10-19T12:25:48;17.80;99.90
4604;DHT22;2314;48.272;11.562;2022-10-19T12:28:20;17.80;99.90
4604;DHT22;2314;48.272;11.562;2022-10-19T12:30:50;17.80;99.90
4604;DHT22;2314;48.272;11.562;2022-10-19T12:33:21;17.80;99.90
4604;DHT22;2314;48.272;11.562;2022-10-19T12:36:08;17.70;99.90
4604;DHT22;2314;48.272;11.562;2022-10-19T12:38:49;17.70;99.90
4604;DHT22;2314;48.272;11.562;2022-10-19T12:41:24;17.80;99.90
4604;DHT22;2314;48.272;11.562;2022-10-19T12:44:07;17.60;99.90
4604;DHT22;2314;48.272;11.562;2022-10-19T12:46:40;17.60;99.90
4604;DHT22;2314;48.272;11.562;2022-10-19T12:49:34;17.60;99.90
4604;DHT22;2314;48.272;11.562;2022-10-19T12:52:03;18.00;99.90
4604;DHT22;2314;48.272;11.562;2022-10-19T12:54:34;18.30;99.90
4604;DHT22;2314;48.272;11.562;2022-10-19T12:57:21;18.30;99.90
4604;DHT22;2314;48.272;11.562;2022-10-19T13:00:02;18.20;99.90
4604;DHT22;2314;48.272;11.562;2022-10-19T13:02:33;18.00;99.90
4604;DHT22;2314;48.272;11.562;2022-10-19T13:05:01;17.90;99.90
4604;DHT22;2314;48.272;11.562;2022-10-19T13:07:32;17.80;99.90
4604;DHT22;2314;48.272;11.562;2022-10-19T13:10:02;17.70;99.90
4604;DHT22;2314;48.272;11.562;2022-10-19T13:12:43;17.60;99.90
4604;DHT22;2314;48.272;11.562;2022-10-19T13:24:35;17.90;99.90
4604;DHT22;2314;48.272;11.562;2022-10-19T13:33:49;17.60;99.90
4604;DHT22;2314;48.272;11.562;2022-10-19T13:36:19;17.30;99.90
4604;DHT22;2314;48.272;11.562;2022-10-19T13:39:11;17.30;99.90
4604;DHT22;2314;48.272;11.562;2022-10-19T13:41:50;17.50;99.90
4604;DHT22;2314;48.272;11.562;2022-10-19T13:44:30;17.80;99.90
4604;DHT22;2314;48.272;11.562;2022-10-19T13:50:24;18.70;99.90
4604;DHT22;2314;48.272;11.562;2022-10-19T13:53:23;18.50;99.90
4604;DHT22;2314;48.272;11.562;2022-10-19T13:56:25;18.20;99.90
4604;DHT22;2314;48.272;11.562;2022-10-19T13:59:44;17.80;99.90
4604;DHT22;2314;48.272;11.562;2022-10-19T14:06:00;17.30;99.90
4604;DHT22;2314;48.272;11.562;2022-10-19T14:08:48;17.60;99.90
4604;DHT22;2314;48.272;11.562;2022-10-19T14:11:26;17.90;99.90
4604;DHT22;2314;48.272;11.562;2022-10-19T14:14:14;17.80;99.90
4604;DHT22;2314;48.272;11.562;2022-10-19T14:16:51;17.70;99.90
4604;DHT22;2314;48.272;11.562;2022-10-19T14:19:24;17.60;99.90
4604;DHT22;2314;48.272;11.562;2022-10-19T14:21:55;17.40;99.90
4604;DHT22;2314;48.272;11.562;2022-10-19T14:24:31;17.20;99.90
4604;DHT22;2314;48.272;11.562;2022-10-19T14:27:01;17.00;99.90
4604;DHT22;2314;48.272;11.562;2022-10-19T14:29:32;16.80;99.90
4604;DHT22;2314;48.272;11.562;2022-10-19T14:32:01;16.70;99.90
4604;DHT22;2314;48.272;11.562;2022-10-19T14:34:30;16.60;99.90
4604;DHT22;2314;48.272;11.562;2022-10-19T14:36:57;16.70;99.90
4604;DHT22;2314;48.272;11.562;2022-10-19T14:39:29;16.80;99.90
4604;DHT22;2314;48.272;11.562;2022-10-19T14:42:02;17.00;99.90
4604;DHT22;2314;48.272;11.562;2022-10-19T14:44:36;17.20;99.90
4604;DHT22;2314;48.272;11.562;2022-10-19T14:47:17;17.40;99.90
4604;DHT22;2314;48.272;11.562;2022-10-19T14:49:48;17.30;99.90
4604;DHT22;2314;48.272;11.562;2022-10-19T14:52:19;17.30;99.90
4604;DHT22;2314;48.272;11.562;2022-10-19T14:54:51;17.20;99.90
4604;DHT22;2314;48.272;11.562;2022-10-19T14:57:24;17.10;99.90
4604;DHT22;2314;48.272;11.562;2022-10-19T14:59:54;16.90;99.90
4604;DHT22;2314;48.272;11.562;2022-10-19T15:02:26;16.90;99.90
4604;DHT22;2314;48.272;11.562;2022-10-19T15:04:59;16.90;99.90
4604;DHT22;2314;48.272;11.562;2022-10-19T15:07:33;16.80;99.90
4604;DHT22;2314;48.272;11.562;2022-10-19T15:10:05;16.70;99.90
4604;DHT22;2314;48.272;11.562;2022-10-19T15:12:37;16.60;99.90
4604;DHT22;2314;48.272;11.562;2022-10-19T15:15:08;16.40;99.90
4604;DHT22;2314;48.272;11.562;2022-10-19T15:17:49;16.20;99.90
4604;DHT22;2314;48.272;11.562;2022-10-19T15:20:25;16.00;99.90
4604;DHT22;2314;48.272;11.562;2022-10-19T15:22:54;15.90;99.90
4604;DHT22;2314;48.272;11.562;2022-10-19T15:25:26;15.80;99.90
4604;DHT22;2314;48.272;11.562;2022-10-19T15:28:20;15.70;99.90
4604;DHT22;2314;48.272;11.562;2022-10-19T15:30:59;15.60;99.90
4604;DHT22;2314;48.272;11.562;2022-10-19T15:33:29;15.50;99.90
4604;DHT22;2314;48.272;11.562;2022-10-19T15:36:08;15.30;99.90
4604;DHT22;2314;48.272;11.562;2022-10-19T15:38:41;15.30;99.90
4604;DHT22;2314;48.272;11.562;2022-10-19T15:41:19;15.10;99.90
4604;DHT22;2314;48.272;11.562;2022-10-19T15:43:52;15.00;99.90
4604;DHT22;2314;48.272;11.562;2022-10-19T15:46:21;14.90;99.90
4604;DHT22;2314;48.272;11.562;2022-10-19T15:48:51;14.80;99.90
4604;DHT22;2314;48.272;11.562;2022-10-19T15:51:43;14.70;99.90
4604;DHT22;2314;48.272;11.562;2022-10-19T15:54:12;14.60;99.90
4604;DHT22;2314;48.272;11.562;2022-10-19T15:56:43;14.50;99.90
4604;DHT22;2314;48.272;11.562;2022-10-19T15:59:13;14.40;99.90
4604;DHT22;2314;48.272;11.562;2022-10-19T16:01:41;14.30;99.90
4604;DHT22;2314;48.272;11.562;2022-10-19T16:04:09;14.30;99.90
4604;DHT22;2314;48.272;11.562;2022-10-19T16:06:41;14.20;99.90
4604;DHT22;2314;48.272;11.562;2022-10-19T16:09:16;14.10;99.90
4604;DHT22;2314;48.272;11.562;2022-10-19T16:11:44;14.00;99.90
4604;DHT22;2314;48.272;11.562;2022-10-19T16:14:12;13.90;99.90
4604;DHT22;2314;48.272;11.562;2022-10-19T16:16:39;13.90;99.90
4604;DHT22;2314;48.272;11.562;2022-10-19T16:19:08;13.80;99.90
4604;DHT22;2314;48.272;11.562;2022-10-19T16:21:35;13.70;99.90
4604;DHT22;2314;48.272;11.562;2022-10-19T16:24:04;13.70;99.90
4604;DHT22;2314;48.272;11.562;2022-10-19T16:26:31;13.60;99.90
4604;DHT22;2314;48.272;11.562;2022-10-19T16:28:58;13.60;99.90
4604;DHT22;2314;48.272;11.562;2022-10-19T16:31:26;13.60;99.90
4604;DHT22;2314;48.272;11.562;2022-10-19T16:33:53;13.60;99.90
4604;DHT22;2314;48.272;11.562;2022-10-19T16:36:20;13.60;99.90
4604;DHT22;2314;48.272;11.562;2022-10-19T16:38:47;13.60;99.90
4604;DHT22;2314;48.272;11.562;2022-10-19T16:41:15;13.60;99.90
4604;DHT22;2314;48.272;11.562;2022-10-19T16:43:43;13.70;99.90
4604;DHT22;2314;48.272;11.562;2022-10-19T16:46:10;13.70;99.90
4604;DHT22;2314;48.272;11.562;2022-10-19T16:48:37;13.70;99.90